createdAt,value
2019-05-23T00:00:58.980Z,99.90
2019-05-23T00:03:52.586Z,99.90
2019-05-23T00:06:42.600Z,99.90
2019-05-23T00:09:31.688Z,99.90
2019-05-23T00:15:32.119Z,99.90
2019-05-23T00:18:04.666Z,99.90
2019-05-23T00:20:35.862Z,99.90
2019-05-23T00:23:07.742Z,99.90
2019-05-23T00:25:40.455Z,99.90
2019-05-23T00:28:12.350Z,99.90
2019-05-23T00:30:44.739Z,99.90
2019-05-23T00:33:23.702Z,99.90
2019-05-23T00:35:55.132Z,99.90
2019-05-23T00:38:26.747Z,99.90
2019-05-23T00:40:58.254Z,99.90
2019-05-23T00:43:29.987Z,99.90
2019-05-23T00:46:00.807Z,99.90
2019-05-23T00:48:31.714Z,99.90
2019-05-23T00:51:05.238Z,99.90
2019-05-23T00:53:37.311Z,99.90
2019-05-23T00:56:09.687Z,99.90
2019-05-23T00:58:41.315Z,99.90
2019-05-23T01:01:11.954Z,99.90
2019-05-23T01:03:43.624Z,99.90
2019-05-23T01:06:15.213Z,99.90
2019-05-23T01:08:46.665Z,99.90
2019-05-23T01:11:18.963Z,99.90
2019-05-23T01:13:50.306Z,99.90
2019-05-23T01:16:24.298Z,99.90
2019-05-23T01:18:55.010Z,99.90
2019-05-23T01:21:39.929Z,99.90
2019-05-23T01:24:30.378Z,99.90
2019-05-23T01:27:02.011Z,99.90
2019-05-23T01:29:37.686Z,99.90
2019-05-23T01:32:27.481Z,99.90
2019-05-23T01:34:58.823Z,99.90
2019-05-23T01:37:30.773Z,99.90
2019-05-23T01:40:02.524Z,99.90
2019-05-23T01:42:34.169Z,99.90
2019-05-23T01:45:06.060Z,99.90
2019-05-23T01:47:36.766Z,99.90
2019-05-23T01:50:10.421Z,99.90
2019-05-23T01:52:42.127Z,99.90
2019-05-23T01:55:13.183Z,99.90
2019-05-23T01:57:44.607Z,99.90
2019-05-23T02:00:17.927Z,99.90
2019-05-23T02:02:49.078Z,99.90
2019-05-23T02:05:21.423Z,99.90
2019-05-23T02:07:52.282Z,99.90
2019-05-23T02:10:24.419Z,99.90
2019-05-23T02:12:55.821Z,99.90
2019-05-23T02:15:27.151Z,99.90
2019-05-23T02:17:58.445Z,99.90
2019-05-23T02:20:29.302Z,99.90
2019-05-23T02:23:00.740Z,99.90
2019-05-23T02:25:32.987Z,99.90
2019-05-23T02:28:04.838Z,99.90
2019-05-23T02:30:36.614Z,99.90
2019-05-23T02:33:10.282Z,99.90
2019-05-23T02:35:41.440Z,99.90
2019-05-23T02:38:32.727Z,99.90
2019-05-23T02:41:21.529Z,99.90
2019-05-23T02:43:54.153Z,99.90
2019-05-23T02:46:29.297Z,99.90
2019-05-23T02:49:03.961Z,99.90
2019-05-23T02:51:37.455Z,99.90
2019-05-23T02:54:12.460Z,99.90
2019-05-23T02:56:44.896Z,99.90
2019-05-23T02:59:33.678Z,99.90
2019-05-23T03:02:30.029Z,99.90
2019-05-23T03:05:02.716Z,99.90
2019-05-23T03:07:35.220Z,99.90
2019-05-23T03:10:08.943Z,99.90
2019-05-23T03:12:43.559Z,99.90
2019-05-23T03:15:16.010Z,99.90
2019-05-23T03:17:49.617Z,99.90
2019-05-23T03:20:21.803Z,99.90
2019-05-23T03:23:12.696Z,99.90
2019-05-23T03:25:46.367Z,99.90
2019-05-23T03:28:18.623Z,99.90
2019-05-23T03:31:25.228Z,99.90
2019-05-23T03:33:29.849Z,99.90
2019-05-23T03:36:01.833Z,99.90
2019-05-23T03:38:33.487Z,99.90
2019-05-23T03:41:05.036Z,99.90
2019-05-23T03:43:36.251Z,99.90
2019-05-23T03:46:23.895Z,99.90
2019-05-23T03:48:56.127Z,99.90
2019-05-23T03:51:26.723Z,99.90
2019-05-23T03:53:58.081Z,99.90
2019-05-23T03:56:30.631Z,99.90
2019-05-23T03:59:01.966Z,99.90
2019-05-23T04:01:47.007Z,99.90
2019-05-23T04:04:07.350Z,99.90
2019-05-23T04:06:38.330Z,99.90
2019-05-23T04:09:10.733Z,99.90
2019-05-23T04:11:41.780Z,99.90
2019-05-23T04:14:12.793Z,99.90
2019-05-23T04:16:44.546Z,99.90
2019-05-23T04:19:16.791Z,99.90
2019-05-23T04:21:47.770Z,99.90
2019-05-23T04:24:18.461Z,99.90
2019-05-23T04:26:49.511Z,99.90
2019-05-23T04:29:20.547Z,99.90
2019-05-23T04:32:06.206Z,99.90
2019-05-23T04:34:23.915Z,99.90
2019-05-23T04:36:54.570Z,99.90
2019-05-23T04:39:25.794Z,99.90
2019-05-23T04:41:56.830Z,99.90
2019-05-23T04:44:27.609Z,99.90
2019-05-23T04:46:59.047Z,99.90
2019-05-23T04:49:30.028Z,99.90
2019-05-23T04:52:00.902Z,99.90
2019-05-23T04:54:31.925Z,99.90
2019-05-23T04:57:04.743Z,99.90
2019-05-23T04:59:35.799Z,99.90
2019-05-23T05:02:23.062Z,99.90
2019-05-23T05:04:39.574Z,99.90
2019-05-23T05:07:10.366Z,99.90
2019-05-23T05:09:41.469Z,99.90
2019-05-23T05:12:12.455Z,99.90
2019-05-23T05:14:43.233Z,99.90
2019-05-23T05:17:14.037Z,99.90
2019-05-23T05:19:45.120Z,99.90
2019-05-23T05:22:16.636Z,99.90
2019-05-23T05:24:47.447Z,99.90
2019-05-23T05:27:19.850Z,99.90
2019-05-23T05:29:50.864Z,99.90
2019-05-23T05:32:22.442Z,99.90
2019-05-23T05:34:52.983Z,99.90
2019-05-23T05:37:23.681Z,99.90
2019-05-23T05:39:54.588Z,99.90
2019-05-23T05:42:25.251Z,99.90
2019-05-23T05:44:56.127Z,99.90
2019-05-23T05:47:27.512Z,99.90
2019-05-23T05:49:59.097Z,99.90
2019-05-23T05:52:30.932Z,99.80
2019-05-23T05:55:01.680Z,99.80
2019-05-23T05:57:32.443Z,99.70
2019-05-23T06:00:04.769Z,99.50
2019-05-23T06:02:35.691Z,98.60
2019-05-23T06:05:09.514Z,98.80
2019-05-23T06:07:41.840Z,98.90
2019-05-23T06:10:14.145Z,99.00
2019-05-23T06:12:45.511Z,99.10
2019-05-23T06:15:17.185Z,98.50
2019-05-23T06:17:48.762Z,98.20
2019-05-23T06:20:19.646Z,98.80
2019-05-23T06:22:52.305Z,96.80
2019-05-23T06:25:23.263Z,96.70
2019-05-23T06:27:54.684Z,97.00
2019-05-23T06:30:26.187Z,97.40
2019-05-23T06:32:57.491Z,96.80
2019-05-23T06:35:29.099Z,96.50
2019-05-23T06:38:01.335Z,96.40
2019-05-23T06:40:32.731Z,94.80
2019-05-23T06:43:03.959Z,94.60
2019-05-23T06:45:35.319Z,94.90
2019-05-23T06:48:06.306Z,95.00
2019-05-23T06:50:37.083Z,95.40
2019-05-23T06:53:08.958Z,94.40
2019-05-23T06:55:39.466Z,94.00
2019-05-23T06:58:10.447Z,93.50
2019-05-23T07:00:42.611Z,93.30
2019-05-23T07:03:13.995Z,93.40
2019-05-23T07:05:44.772Z,92.80
2019-05-23T07:08:15.541Z,92.40
2019-05-23T07:10:46.308Z,92.30
2019-05-23T07:13:17.857Z,92.50
2019-05-23T07:15:48.610Z,92.70
2019-05-23T07:18:19.534Z,91.40
2019-05-23T07:20:50.234Z,92.00
2019-05-23T07:23:21.220Z,90.70
2019-05-23T07:25:52.262Z,90.40
2019-05-23T07:28:22.976Z,90.50
2019-05-23T07:30:54.035Z,91.60
2019-05-23T07:33:24.822Z,90.80
2019-05-23T07:35:56.023Z,89.30
2019-05-23T07:38:26.693Z,89.90
2019-05-23T07:40:58.367Z,86.50
2019-05-23T07:43:29.145Z,86.10
2019-05-23T07:46:00.819Z,84.50
2019-05-23T07:48:32.478Z,86.10
2019-05-23T07:51:03.259Z,87.00
2019-05-23T07:53:35.587Z,87.90
2019-05-23T07:56:08.917Z,88.80
2019-05-23T07:58:40.042Z,89.20
2019-05-23T08:01:15.286Z,90.50
2019-05-23T08:03:48.918Z,90.70
2019-05-23T08:06:20.155Z,87.70
2019-05-23T08:08:51.866Z,85.10
2019-05-23T08:11:22.646Z,88.70
2019-05-23T08:13:55.327Z,86.30
2019-05-23T08:16:26.106Z,83.20
2019-05-23T08:18:56.844Z,81.80
2019-05-23T08:21:27.718Z,80.40
2019-05-23T08:23:58.636Z,77.10
2019-05-23T08:26:30.990Z,72.40
2019-05-23T08:29:24.638Z,74.70
2019-05-23T08:31:34.180Z,70.80
2019-05-23T08:34:06.359Z,72.60
2019-05-23T08:36:37.019Z,79.20
2019-05-23T08:39:10.195Z,71.00
2019-05-23T08:41:41.200Z,75.20
2019-05-23T08:44:12.003Z,77.40
2019-05-23T08:46:42.963Z,76.70
2019-05-23T08:49:14.094Z,76.20
2019-05-23T08:51:45.000Z,78.10
2019-05-23T08:54:15.947Z,73.10
2019-05-23T08:56:47.054Z,75.20
2019-05-23T08:59:18.805Z,73.00
2019-05-23T09:01:49.607Z,73.80
2019-05-23T09:04:20.983Z,75.60
2019-05-23T09:06:52.418Z,74.20
2019-05-23T09:09:29.606Z,72.50
2019-05-23T09:11:57.214Z,76.30
2019-05-23T09:14:28.440Z,71.70
2019-05-23T09:16:59.149Z,72.20
2019-05-23T09:19:29.761Z,71.90
2019-05-23T09:22:00.737Z,67.00
2019-05-23T09:24:31.434Z,66.30
2019-05-23T09:27:02.101Z,68.20
2019-05-23T09:29:32.973Z,69.30
2019-05-23T09:32:04.962Z,71.90
2019-05-23T09:34:35.816Z,72.80
2019-05-23T09:37:08.403Z,76.80
2019-05-23T09:39:40.698Z,70.10
2019-05-23T09:42:12.278Z,67.50
2019-05-23T09:44:43.245Z,62.80
2019-05-23T09:47:13.828Z,62.90
2019-05-23T09:49:53.510Z,61.40
2019-05-23T09:52:17.253Z,59.50
2019-05-23T09:54:48.175Z,57.00
2019-05-23T09:57:18.938Z,57.80
2019-05-23T09:59:50.161Z,55.60
2019-05-23T10:02:20.986Z,57.30
2019-05-23T10:04:52.569Z,57.30
2019-05-23T10:07:23.343Z,57.90
2019-05-23T10:09:54.231Z,53.20
2019-05-23T10:12:24.909Z,57.00
2019-05-23T10:14:55.823Z,56.00
2019-05-23T10:17:26.727Z,54.10
2019-05-23T10:19:57.424Z,57.30
2019-05-23T10:22:28.085Z,53.50
2019-05-23T10:24:58.724Z,60.60
2019-05-23T10:27:29.380Z,52.30
2019-05-23T10:30:00.345Z,53.10
2019-05-23T10:32:31.794Z,50.70
2019-05-23T10:35:02.430Z,52.50
2019-05-23T10:37:33.387Z,53.80
2019-05-23T10:40:05.857Z,54.20
2019-05-23T10:42:38.190Z,50.60
2019-05-23T10:45:09.371Z,50.70
2019-05-23T10:47:40.313Z,52.40
2019-05-23T10:50:11.660Z,54.80
2019-05-23T10:52:42.279Z,55.50
2019-05-23T10:55:13.153Z,52.00
2019-05-23T10:57:44.077Z,50.60
2019-05-23T11:00:16.622Z,52.00
2019-05-23T11:02:47.513Z,51.80
2019-05-23T11:05:18.320Z,54.60
2019-05-23T11:07:49.180Z,51.60
2019-05-23T11:10:21.183Z,51.80
2019-05-23T11:12:52.048Z,50.40
2019-05-23T11:15:23.046Z,51.70
2019-05-23T11:17:54.305Z,49.90
2019-05-23T11:20:26.159Z,48.70
2019-05-23T11:22:56.987Z,49.10
2019-05-23T11:25:28.824Z,52.90
2019-05-23T11:27:59.786Z,54.40
2019-05-23T11:30:32.182Z,55.10
2019-05-23T11:33:03.173Z,53.20
2019-05-23T11:35:34.158Z,50.90
2019-05-23T11:38:05.113Z,52.10
2019-05-23T11:40:35.760Z,52.40
2019-05-23T11:43:06.348Z,50.40
2019-05-23T11:45:47.606Z,51.90
2019-05-23T11:48:18.614Z,50.40
2019-05-23T11:50:49.452Z,52.80
2019-05-23T11:53:20.415Z,55.80
2019-05-23T11:55:54.360Z,55.90
2019-05-23T11:58:24.231Z,51.00
2019-05-23T12:01:03.565Z,54.10
2019-05-23T12:03:34.284Z,54.90
2019-05-23T12:06:06.244Z,54.20
2019-05-23T12:08:37.083Z,50.40
2019-05-23T12:11:07.771Z,49.40
2019-05-23T12:13:38.744Z,51.30
2019-05-23T12:16:10.996Z,48.20
2019-05-23T12:18:42.168Z,48.70
2019-05-23T12:21:13.408Z,50.90
2019-05-23T12:23:44.237Z,52.80
2019-05-23T12:26:15.089Z,54.10
2019-05-23T12:28:46.131Z,53.40
2019-05-23T12:31:18.194Z,50.00
2019-05-23T12:33:48.872Z,50.80
2019-05-23T12:36:20.333Z,50.60
2019-05-23T12:38:51.075Z,49.20
2019-05-23T12:41:23.087Z,49.40
2019-05-23T12:43:53.761Z,45.50
2019-05-23T12:46:24.327Z,47.30
2019-05-23T12:48:59.278Z,45.50
2019-05-23T12:51:44.010Z,45.90
2019-05-23T12:54:15.489Z,45.80
2019-05-23T12:56:48.990Z,47.80
2019-05-23T12:59:20.492Z,47.10
2019-05-23T13:01:52.855Z,47.10
2019-05-23T13:04:23.621Z,47.10
2019-05-23T13:06:55.039Z,45.00
2019-05-23T13:09:25.677Z,46.30
2019-05-23T13:11:56.531Z,45.00
2019-05-23T13:14:27.341Z,47.00
2019-05-23T13:17:00.968Z,45.40
2019-05-23T13:19:31.011Z,47.60
2019-05-23T13:22:02.208Z,47.90
2019-05-23T13:24:51.143Z,45.30
2019-05-23T13:27:05.337Z,43.70
2019-05-23T13:29:36.428Z,43.60
2019-05-23T13:32:08.809Z,43.20
2019-05-23T13:34:39.846Z,44.50
2019-05-23T13:37:16.653Z,41.30
2019-05-23T13:39:44.790Z,44.60
2019-05-23T13:42:15.427Z,44.70
2019-05-23T13:44:46.563Z,42.80
2019-05-23T13:47:17.675Z,45.20
2019-05-23T13:49:48.443Z,44.30
2019-05-23T13:52:19.178Z,43.70
2019-05-23T13:54:50.851Z,44.60
2019-05-23T13:57:21.645Z,46.10
2019-05-23T13:59:52.384Z,45.60
2019-05-23T14:02:22.973Z,46.80
2019-05-23T14:04:54.050Z,45.90
2019-05-23T14:07:26.520Z,46.40
2019-05-23T14:09:57.672Z,46.10
2019-05-23T14:12:29.074Z,46.20
2019-05-23T14:14:59.798Z,47.30
2019-05-23T14:17:33.566Z,46.80
2019-05-23T14:20:05.859Z,48.20
2019-05-23T14:22:38.235Z,47.90
2019-05-23T14:25:09.225Z,48.60
2019-05-23T14:27:44.501Z,46.60
2019-05-23T14:30:20.338Z,45.90
2019-05-23T14:32:52.709Z,49.40
2019-05-23T14:35:24.938Z,47.20
2019-05-23T14:37:57.250Z,48.60
2019-05-23T14:40:27.962Z,48.20
2019-05-23T14:43:15.699Z,50.20
2019-05-23T14:46:03.330Z,48.50
2019-05-23T14:48:54.719Z,47.60
2019-05-23T14:51:42.385Z,47.10
2019-05-23T14:54:14.763Z,47.10
2019-05-23T14:56:46.018Z,49.00
2019-05-23T14:59:16.832Z,49.40
2019-05-23T15:01:47.703Z,47.90
2019-05-23T15:04:18.664Z,46.90
2019-05-23T15:06:49.384Z,47.90
2019-05-23T15:09:21.718Z,47.90
2019-05-23T15:11:52.823Z,47.90
2019-05-23T15:14:23.504Z,48.40
2019-05-23T15:16:54.268Z,49.90
2019-05-23T15:19:39.112Z,50.20
2019-05-23T15:21:57.529Z,49.40
2019-05-23T15:24:29.154Z,50.10
2019-05-23T15:26:59.866Z,50.80
2019-05-23T15:29:30.557Z,52.30
2019-05-23T15:32:03.410Z,52.90
2019-05-23T15:34:35.218Z,48.40
2019-05-23T15:37:06.601Z,50.00
2019-05-23T15:39:37.449Z,53.60
2019-05-23T15:42:08.122Z,48.00
2019-05-23T15:44:38.911Z,50.00
2019-05-23T15:47:09.634Z,48.50
2019-05-23T15:49:41.913Z,48.90
2019-05-23T15:52:17.212Z,50.30
2019-05-23T15:54:55.634Z,49.00
2019-05-23T15:57:30.739Z,50.80
2019-05-23T16:00:15.078Z,50.90
2019-05-23T16:02:47.472Z,50.10
2019-05-23T16:05:19.083Z,50.30
2019-05-23T16:07:50.120Z,50.00
2019-05-23T16:10:21.984Z,51.50
2019-05-23T16:12:52.707Z,53.90
2019-05-23T16:15:24.558Z,51.70
2019-05-23T16:17:55.698Z,49.60
2019-05-23T16:20:27.837Z,49.30
2019-05-23T16:22:58.510Z,48.40
2019-05-23T16:25:29.174Z,50.90
2019-05-23T16:27:59.920Z,48.80
2019-05-23T16:30:31.158Z,49.20
2019-05-23T16:33:01.899Z,50.30
2019-05-23T16:35:32.828Z,50.20
2019-05-23T16:38:03.516Z,50.30
2019-05-23T16:40:34.233Z,51.40
2019-05-23T16:43:05.867Z,52.30
2019-05-23T16:45:36.565Z,53.10
2019-05-23T16:48:07.321Z,53.20
2019-05-23T16:50:38.240Z,53.10
2019-05-23T16:53:09.082Z,52.80
2019-05-23T16:55:41.483Z,52.10
2019-05-23T16:58:13.798Z,52.30
2019-05-23T17:00:48.742Z,53.60
2019-05-23T17:03:21.122Z,51.60
2019-05-23T17:06:08.763Z,52.80
2019-05-23T17:08:47.347Z,52.30
2019-05-23T17:11:35.815Z,54.10
2019-05-23T17:14:17.213Z,53.20
2019-05-23T17:16:49.548Z,54.40
2019-05-23T17:19:26.824Z,52.80
2019-05-23T17:22:01.578Z,53.70
2019-05-23T17:24:33.954Z,54.60
2019-05-23T17:27:06.365Z,54.60
2019-05-23T17:29:41.780Z,53.80
2019-05-23T17:32:14.494Z,53.80
2019-05-23T17:34:47.110Z,54.10
2019-05-23T17:37:19.335Z,56.30
2019-05-23T17:39:53.393Z,54.40
2019-05-23T17:42:24.506Z,53.70
2019-05-23T17:44:55.381Z,54.40
2019-05-23T17:47:26.246Z,55.70
2019-05-23T17:49:56.993Z,54.90
2019-05-23T17:52:27.651Z,55.30
2019-05-23T17:54:58.257Z,55.20
2019-05-23T17:57:29.804Z,55.40
2019-05-23T18:00:00.433Z,57.00
2019-05-23T18:02:31.466Z,56.90
2019-05-23T18:05:03.950Z,58.30
2019-05-23T18:07:38.029Z,56.50
2019-05-23T18:10:10.024Z,56.80
2019-05-23T18:12:40.717Z,58.30
2019-05-23T18:15:13.707Z,58.80
2019-05-23T18:17:44.677Z,57.50
2019-05-23T18:20:16.186Z,58.20
2019-05-23T18:22:46.922Z,57.60
2019-05-23T18:25:17.752Z,57.60
2019-05-23T18:27:48.522Z,61.20
2019-05-23T18:30:29.825Z,60.10
2019-05-23T18:33:02.167Z,58.60
2019-05-23T18:35:33.250Z,58.60
2019-05-23T18:38:04.875Z,59.20
2019-05-23T18:40:35.825Z,59.20
2019-05-23T18:43:06.953Z,59.50
2019-05-23T18:45:39.551Z,60.00
2019-05-23T18:48:11.526Z,60.30
2019-05-23T18:50:42.200Z,60.80
2019-05-23T18:53:12.976Z,61.20
2019-05-23T18:55:44.882Z,61.80
2019-05-23T18:58:19.305Z,63.70
2019-05-23T19:01:16.230Z,64.50
2019-05-23T19:03:46.969Z,64.10
2019-05-23T19:06:17.594Z,63.40
2019-05-23T19:08:48.735Z,64.70
2019-05-23T19:11:21.606Z,65.50
2019-05-23T19:13:52.305Z,65.10
2019-05-23T19:16:23.050Z,66.00
2019-05-23T19:18:54.431Z,67.90
2019-05-23T19:21:28.078Z,68.40
2019-05-23T19:23:59.037Z,70.50
2019-05-23T19:26:30.177Z,71.20
2019-05-23T19:29:01.322Z,72.60
2019-05-23T19:31:32.144Z,72.80
2019-05-23T19:34:03.198Z,72.90
2019-05-23T19:36:34.549Z,74.70
2019-05-23T19:39:06.807Z,75.20
2019-05-23T19:41:38.462Z,75.40
2019-05-23T19:44:09.470Z,75.70
2019-05-23T19:46:41.101Z,75.10
2019-05-23T19:49:13.046Z,74.00
2019-05-23T19:51:44.353Z,75.20
2019-05-23T19:54:16.199Z,75.80
2019-05-23T19:56:47.917Z,77.00
2019-05-23T19:59:20.941Z,79.40
2019-05-23T20:02:06.513Z,78.50
2019-05-23T20:04:38.742Z,80.20
2019-05-23T20:07:09.937Z,79.00
2019-05-23T20:09:40.642Z,78.60
2019-05-23T20:12:12.964Z,79.60
2019-05-23T20:14:44.775Z,80.00
2019-05-23T20:17:16.022Z,82.10
2019-05-23T20:19:50.146Z,81.60
2019-05-23T20:22:18.872Z,82.60
2019-05-23T20:24:49.814Z,82.40
2019-05-23T20:27:20.475Z,82.50
2019-05-23T20:29:51.448Z,82.60
2019-05-23T20:32:22.171Z,83.60
2019-05-23T20:34:52.754Z,84.30
2019-05-23T20:37:26.034Z,84.10
2019-05-23T20:39:56.629Z,84.50
2019-05-23T20:42:27.443Z,84.20
2019-05-23T20:44:58.659Z,84.90
2019-05-23T20:47:29.614Z,85.50
2019-05-23T20:50:00.345Z,85.50
2019-05-23T20:52:31.085Z,85.90
2019-05-23T20:55:01.753Z,86.50
2019-05-23T20:57:32.386Z,86.80
2019-05-23T21:00:05.321Z,87.30
2019-05-23T21:02:37.098Z,87.70
2019-05-23T21:05:07.965Z,87.00
2019-05-23T21:07:38.521Z,86.90
2019-05-23T21:10:10.033Z,87.70
2019-05-23T21:12:40.747Z,87.50
2019-05-23T21:15:11.695Z,86.90
2019-05-23T21:17:42.395Z,87.10
2019-05-23T21:20:13.144Z,86.10
2019-05-23T21:22:44.117Z,86.30
2019-05-23T21:25:14.794Z,86.60
2019-05-23T21:27:45.388Z,87.20
2019-05-23T21:30:15.949Z,86.60
2019-05-23T21:32:46.610Z,87.30
2019-05-23T21:35:17.253Z,87.60
2019-05-23T21:37:47.963Z,88.40
2019-05-23T21:40:33.462Z,88.10
2019-05-23T21:43:05.021Z,88.40
2019-05-23T21:45:35.880Z,88.20
2019-05-23T21:48:06.922Z,88.10
2019-05-23T21:50:37.517Z,87.00
2019-05-23T21:53:08.971Z,87.20
2019-05-23T21:55:43.916Z,86.70
2019-05-23T21:58:15.251Z,87.40
2019-05-23T22:01:08.396Z,88.10
2019-05-23T22:03:54.454Z,87.20
2019-05-23T22:06:43.589Z,87.00
2019-05-23T22:09:15.749Z,88.40
2019-05-23T22:11:46.514Z,90.00
2019-05-23T22:14:17.337Z,90.30
2019-05-23T22:16:48.389Z,90.00
2019-05-23T22:19:21.010Z,90.90
2019-05-23T22:21:51.657Z,91.30
2019-05-23T22:24:22.786Z,90.90
2019-05-23T22:26:53.371Z,90.30
2019-05-23T22:29:24.094Z,90.10
2019-05-23T22:31:56.530Z,90.20
2019-05-23T22:34:29.194Z,91.00
2019-05-23T22:37:00.803Z,90.70
2019-05-23T22:39:31.516Z,90.50
2019-05-23T22:42:02.342Z,90.70
2019-05-23T22:44:32.947Z,91.20
2019-05-23T22:47:03.767Z,91.30
2019-05-23T22:49:34.470Z,91.60
2019-05-23T22:52:05.383Z,91.90
2019-05-23T22:54:36.122Z,91.80
2019-05-23T22:57:06.895Z,92.30
2019-05-23T22:59:37.632Z,92.90
2019-05-23T23:02:09.951Z,92.40
2019-05-23T23:04:40.541Z,92.20
2019-05-23T23:07:11.854Z,92.60
2019-05-23T23:09:42.529Z,92.90
2019-05-23T23:12:13.516Z,92.90
2019-05-23T23:14:45.127Z,92.90
2019-05-23T23:17:16.908Z,93.00
2019-05-23T23:19:47.579Z,93.00
2019-05-23T23:22:18.564Z,93.10
2019-05-23T23:24:49.612Z,93.10
2019-05-23T23:27:20.136Z,93.20
2019-05-23T23:29:50.901Z,93.20
2019-05-23T23:32:21.964Z,93.30
2019-05-23T23:34:52.682Z,93.50
2019-05-23T23:37:23.606Z,93.70
2019-05-23T23:39:54.310Z,93.30
2019-05-23T23:42:24.926Z,93.30
2019-05-23T23:45:13.873Z,93.80
2019-05-23T23:48:02.551Z,94.00
2019-05-23T23:50:51.114Z,94.50
2019-05-23T23:53:39.821Z,95.30
2019-05-23T23:56:28.714Z,95.70
2019-05-23T23:58:58.808Z,95.40
